createdAt,value
2022-11-18T00:02:30.076Z,97632.69
2022-11-18T00:05:18.049Z,97641.84
2022-11-18T00:08:06.488Z,97642.88
2022-11-18T00:10:54.505Z,97642.88
2022-11-18T00:13:59.764Z,97642.63
2022-11-18T00:16:48.651Z,97643.94
2022-11-18T00:19:40.123Z,97648.38
2022-11-18T00:22:30.049Z,97635.63
2022-11-18T00:25:17.953Z,97635.63
2022-11-18T00:28:06.066Z,97632.25
2022-11-18T00:30:53.761Z,97629.44
2022-11-18T00:33:42.249Z,97629.66
2022-11-18T00:36:31.924Z,97627.31
2022-11-18T00:39:21.619Z,97628.41
2022-11-18T00:42:26.889Z,97636.69
2022-11-18T00:45:14.782Z,97635.44
2022-11-18T00:48:03.036Z,97630.41
2022-11-18T00:50:51.306Z,97631.97
2022-11-18T00:53:40.311Z,97634.31
2022-11-18T00:56:27.922Z,97629.84
2022-11-18T00:59:16.295Z,97629.84
2022-11-18T01:02:04.100Z,97641.84
2022-11-18T01:04:52.108Z,97638.97
2022-11-18T01:07:39.728Z,97638.97
2022-11-18T01:10:29.191Z,97643.13
2022-11-18T01:13:21.255Z,97646.00
2022-11-18T01:16:09.367Z,97643.94
2022-11-18T01:18:57.108Z,97650.50
2022-11-18T01:21:45.265Z,97656.28
2022-11-18T01:24:34.529Z,97648.44
2022-11-18T01:27:23.565Z,97660.94
2022-11-18T01:30:12.580Z,97655.22
2022-11-18T01:33:00.087Z,97663.25
2022-11-18T01:35:48.015Z,97664.00
2022-11-18T01:38:35.701Z,97666.34
2022-11-18T01:41:27.033Z,97668.41
2022-11-18T01:45:09.820Z,97672.34
2022-11-18T01:48:05.267Z,97672.06
2022-11-18T01:50:56.513Z,97669.97
2022-11-18T01:53:49.180Z,97671.00
2022-11-18T01:56:43.482Z,97671.50
2022-11-18T01:59:36.143Z,97673.06
2022-11-18T02:02:25.992Z,97674.88
2022-11-18T02:37:03.998Z,97694.44
2022-11-18T02:39:59.612Z,97690.50
2022-11-18T02:42:53.372Z,97693.09
2022-11-18T02:45:46.792Z,97696.69
2022-11-18T02:48:38.933Z,97693.53
2022-11-18T02:51:30.154Z,97693.53
2022-11-18T02:54:21.687Z,97694.00
2022-11-18T02:57:10.256Z,97696.06
2022-11-18T02:59:57.943Z,97696.06
2022-11-18T03:02:48.177Z,97697.63
2022-11-18T03:05:42.146Z,97701.78
2022-11-18T03:08:38.053Z,97702.28
2022-11-18T03:11:31.292Z,97706.44
2022-11-18T03:14:29.980Z,97710.31
2022-11-18T03:17:27.020Z,97703.25
2022-11-18T03:20:21.511Z,97711.09
2022-11-18T03:23:17.665Z,97710.06
2022-11-18T03:26:11.009Z,97724.63
2022-11-18T03:29:06.296Z,97723.56
2022-11-18T03:32:00.961Z,97722.81
2022-11-18T03:34:51.114Z,97728.78
2022-11-18T03:37:42.029Z,97724.63
2022-11-18T03:40:33.445Z,97724.13
2022-11-18T03:43:26.558Z,97738.22
2022-11-18T03:46:20.463Z,97730.19
2022-11-18T03:49:12.437Z,97731.50
2022-11-18T03:52:08.593Z,97742.97
2022-11-18T03:54:59.403Z,97738.56
2022-11-18T03:57:55.984Z,97738.56
2022-11-18T04:00:46.804Z,97748.44
2022-11-18T04:03:35.315Z,97744.47
2022-11-18T04:06:32.322Z,97743.97
2022-11-18T04:09:25.023Z,97752.88
2022-11-18T04:12:17.484Z,97747.75
2022-11-18T04:15:06.320Z,97751.13
2022-11-18T04:17:53.884Z,97764.38
2022-11-18T04:20:42.860Z,97759.69
2022-11-18T04:23:30.320Z,97765.38
2022-11-18T04:26:18.484Z,97759.59
2022-11-18T04:29:06.142Z,97758.84
2022-11-18T04:31:53.426Z,97770.00
2022-11-18T04:34:40.628Z,97771.03
2022-11-18T04:37:29.368Z,97768.16
2022-11-18T04:40:17.803Z,97771.53
2022-11-18T04:43:05.040Z,97763.78
2022-11-18T04:45:52.312Z,97771.38
2022-11-18T04:48:39.587Z,97768.25
2022-11-18T04:51:26.824Z,97780.00
2022-11-18T04:54:16.571Z,97773.00
2022-11-18T04:57:04.301Z,97784.22
2022-11-18T04:59:51.940Z,97789.38
2022-11-18T05:02:39.448Z,97788.06
2022-11-18T05:05:26.781Z,97790.88
2022-11-18T05:08:14.252Z,97795.53
2022-11-18T05:11:21.303Z,97799.94
2022-11-18T05:14:08.774Z,97802.25
2022-11-18T05:16:57.925Z,97804.31
2022-11-18T05:19:45.404Z,97804.81
2022-11-18T05:22:32.904Z,97803.78
2022-11-18T05:25:20.125Z,97815.22
2022-11-18T05:28:08.996Z,97814.19
2022-11-18T05:30:56.336Z,97820.97
2022-11-18T05:33:44.302Z,97820.41
2022-11-18T05:36:31.938Z,97820.91
2022-11-18T05:39:20.648Z,97821.41
2022-11-18T05:42:26.869Z,97828.69
2022-11-18T05:45:16.162Z,97834.97
2022-11-18T05:48:04.753Z,97836.25
2022-11-18T05:50:54.728Z,97841.25
2022-11-18T05:53:42.156Z,97843.91
2022-11-18T05:56:31.420Z,97848.66
2022-11-18T05:59:19.144Z,97851.88
2022-11-18T06:02:15.655Z,97857.19
2022-11-18T06:05:06.489Z,97856.22
2022-11-18T06:07:55.627Z,97864.44
2022-11-18T06:10:45.868Z,97875.75
2022-11-18T06:13:38.711Z,97878.97
2022-11-18T06:16:30.414Z,97894.63
2022-11-18T06:19:19.971Z,97903.00
2022-11-18T06:22:08.526Z,97899.66
2022-11-18T06:24:56.089Z,97911.38
2022-11-18T06:27:45.004Z,97913.47
2022-11-18T06:30:32.317Z,97925.41
2022-11-18T06:33:19.469Z,97922.31
2022-11-18T06:36:09.626Z,97930.13
2022-11-18T06:38:57.161Z,97937.72
2022-11-18T06:41:44.468Z,97942.91
2022-11-18T06:44:31.916Z,97953.09
2022-11-18T06:47:19.161Z,97956.19
2022-11-18T06:50:07.993Z,97969.75
2022-11-18T06:52:57.119Z,97968.69
2022-11-18T06:55:44.995Z,97976.47
2022-11-18T06:58:32.359Z,97984.81
2022-11-18T07:01:23.137Z,97978.84
2022-11-18T07:03:52.805Z,98000.44
2022-11-18T07:06:24.797Z,98000.16
2022-11-18T07:08:55.328Z,97999.41
2022-11-18T07:11:27.113Z,98005.91
2022-11-18T07:13:57.120Z,98010.84
2022-11-18T07:16:27.908Z,98019.94
2022-11-18T07:18:57.864Z,98018.09
2022-11-18T07:21:29.424Z,98018.41
2022-11-18T07:23:59.869Z,98022.03
2022-11-18T07:26:28.901Z,98028.00
2022-11-18T07:28:57.952Z,98036.31
2022-11-18T07:31:26.979Z,98033.97
2022-11-18T07:33:56.008Z,98035.28
2022-11-18T07:36:32.338Z,98044.91
2022-11-18T07:39:07.694Z,98047.25
2022-11-18T07:41:37.353Z,98052.47
2022-11-18T07:44:07.518Z,98050.63
2022-11-18T07:46:38.238Z,98050.09
2022-11-18T07:49:09.906Z,98055.03
2022-11-18T07:51:40.710Z,98066.47
2022-11-18T07:54:13.750Z,98069.63
2022-11-18T07:56:42.807Z,98068.31
2022-11-18T07:59:11.842Z,98072.22
2022-11-18T08:01:40.914Z,98073.25
2022-11-18T08:04:12.852Z,98076.34
2022-11-18T08:06:42.365Z,98074.53
2022-11-18T08:09:12.955Z,98084.41
2022-11-18T08:11:42.059Z,98075.81
2022-11-18T08:14:11.085Z,98087.78
2022-11-18T08:16:40.125Z,98091.41
2022-11-18T08:19:09.107Z,98087.53
2022-11-18T08:21:38.139Z,98094.28
2022-11-18T08:24:07.862Z,98095.59
2022-11-18T08:26:38.252Z,98089.31
2022-11-18T08:29:07.315Z,98092.72
2022-11-18T08:31:36.500Z,98094.03
2022-11-18T08:34:08.144Z,98097.66
2022-11-18T08:36:39.151Z,98101.31
2022-11-18T08:39:10.411Z,98100.53
2022-11-18T08:41:42.658Z,98091.44
2022-11-18T08:44:14.555Z,98109.13
2022-11-18T08:46:45.562Z,98104.16
2022-11-18T08:49:15.120Z,98109.63
2022-11-18T08:51:44.733Z,98112.22
2022-11-18T08:54:14.186Z,98114.84
2022-11-18T08:56:45.088Z,98115.09
2022-11-18T08:59:15.345Z,98110.91
2022-11-18T09:01:45.255Z,98116.91
2022-11-18T09:04:14.658Z,98117.97
2022-11-18T09:06:44.268Z,98120.03
2022-11-18T09:09:13.887Z,98118.75
2022-11-18T09:11:44.712Z,98122.41
2022-11-18T09:15:11.819Z,98123.41
2022-11-18T09:17:03.496Z,98130.19
2022-11-18T09:19:47.207Z,98121.91
2022-11-18T09:22:17.382Z,98129.44
2022-11-18T09:24:46.785Z,98140.38
2022-11-18T09:27:18.093Z,98144.53
2022-11-18T09:29:47.666Z,98147.66
2022-11-18T09:32:17.058Z,98148.97
2022-11-18T09:34:46.389Z,98146.88
2022-11-18T09:37:15.809Z,98153.91
2022-11-18T09:39:45.165Z,98150.00
2022-11-18T09:42:42.298Z,98155.75
2022-11-18T09:45:24.804Z,98163.03
2022-11-18T09:47:59.905Z,98164.59
2022-11-18T09:53:22.401Z,98170.06
2022-11-18T09:55:52.994Z,98175.25
2022-11-18T09:58:34.931Z,98176.28
2022-11-18T10:01:05.576Z,98178.91
2022-11-18T10:03:37.217Z,98179.69
2022-11-18T10:06:24.191Z,98178.63
2022-11-18T10:09:13.791Z,98179.66
2022-11-18T10:11:52.120Z,98177.28
2022-11-18T10:14:45.058Z,98177.81
2022-11-18T10:17:37.386Z,98178.34
2022-11-18T10:20:24.550Z,98177.81
2022-11-18T10:22:58.267Z,98177.81
2022-11-18T10:25:27.954Z,98183.25
2022-11-18T10:27:58.255Z,98187.94
2022-11-18T10:30:29.231Z,98193.41
2022-11-18T10:33:01.887Z,98194.97
2022-11-18T10:35:34.711Z,98195.22
2022-11-18T10:38:09.158Z,98193.91
2022-11-18T10:40:43.642Z,98200.41
2022-11-18T10:43:13.847Z,98200.69
2022-11-18T10:45:45.485Z,98200.16
2022-11-18T10:48:20.319Z,98196.25
2022-11-18T10:50:56.089Z,98200.19
2022-11-18T10:53:37.131Z,98196.81
2022-11-18T10:56:08.465Z,98213.97
2022-11-18T10:58:42.798Z,98197.56
2022-11-18T11:01:24.272Z,98202.25
2022-11-18T11:04:01.294Z,98189.72
2022-11-18T11:06:38.115Z,98200.41
2022-11-18T11:09:11.439Z,98191.28
2022-11-18T11:11:43.701Z,98195.47
2022-11-18T11:14:23.963Z,98198.56
2022-11-18T11:17:11.006Z,98195.47
2022-11-18T11:19:49.704Z,98200.38
2022-11-18T11:22:19.662Z,98198.84
2022-11-18T11:24:49.201Z,98195.97
2022-11-18T11:30:42.132Z,98205.91
2022-11-18T11:33:38.328Z,98203.28
2022-11-18T11:36:34.192Z,98213.16
2022-11-18T11:39:23.631Z,98219.44
2022-11-18T11:42:03.990Z,98211.59
2022-11-18T11:44:50.115Z,98214.22
2022-11-18T11:47:51.110Z,98212.63
2022-11-18T11:50:29.882Z,98218.34
2022-11-18T11:53:17.683Z,98216.00
2022-11-18T11:56:02.959Z,98222.00
2022-11-18T11:59:07.420Z,98221.22
2022-11-18T12:01:53.510Z,98220.69
2022-11-18T12:04:39.960Z,98223.56
2022-11-18T12:07:19.390Z,98219.09
2022-11-18T12:10:06.865Z,98218.81
2022-11-18T12:12:43.606Z,98220.63
2022-11-18T12:15:31.602Z,98226.09
2022-11-18T12:18:13.265Z,98220.34
2022-11-18T12:20:48.292Z,98220.84
2022-11-18T12:23:22.586Z,98223.72
2022-11-18T12:26:03.354Z,98222.13
2022-11-18T12:28:37.722Z,98222.38
2022-11-18T12:31:34.534Z,98223.94
2022-11-18T12:34:13.199Z,98227.31
2022-11-18T12:36:43.080Z,98224.44
2022-11-18T12:39:50.701Z,98232.78
2022-11-18T12:43:09.179Z,98225.75
2022-11-18T12:46:02.207Z,98230.69
2022-11-18T12:48:42.349Z,98228.59
2022-11-18T12:51:42.654Z,98234.34
2022-11-18T12:54:28.719Z,98237.75
2022-11-18T12:57:02.670Z,98236.94
2022-11-18T12:59:35.750Z,98234.34
2022-11-18T13:02:23.548Z,98247.38
2022-11-18T13:05:11.712Z,98242.44
2022-11-18T13:08:03.888Z,98254.19
2022-11-18T13:10:38.877Z,98251.34
2022-11-18T13:13:24.694Z,98255.84
2022-11-18T13:16:13.430Z,98250.41
2022-11-18T13:18:51.370Z,98257.44
2022-11-18T13:21:44.196Z,98262.16
2022-11-18T13:24:15.775Z,98253.31
2022-11-18T13:26:46.858Z,98247.56
2022-11-18T13:29:39.169Z,98248.06
2022-11-18T13:32:22.704Z,98254.59
2022-11-18T13:34:54.073Z,98254.06
2022-11-18T13:37:26.508Z,98250.16
2022-11-18T13:39:56.825Z,98249.09
2022-11-18T13:42:28.490Z,98246.50
2022-11-18T13:45:01.106Z,98245.41
2022-11-18T13:47:38.206Z,98250.88
2022-11-18T13:50:20.953Z,98248.00
2022-11-18T13:53:01.652Z,98252.69
2022-11-18T13:55:38.408Z,98256.88
2022-11-18T13:59:15.939Z,98252.97
2022-11-18T14:01:34.689Z,98256.38
2022-11-18T14:04:07.006Z,98258.47
2022-11-18T14:06:38.659Z,98260.53
2022-11-18T14:12:07.650Z,98263.94
2022-11-18T14:14:39.177Z,98262.13
2022-11-18T14:17:21.529Z,98261.06
2022-11-18T14:19:55.686Z,98265.75
2022-11-18T14:22:27.410Z,98261.88
2022-11-18T14:24:59.555Z,98262.66
2022-11-18T14:27:41.401Z,98266.81
2022-11-18T14:30:44.087Z,98285.06
2022-11-18T14:37:10.349Z,98293.94
2022-11-18T14:43:27.239Z,98277.25
2022-11-18T14:46:01.166Z,98273.06
2022-11-18T14:48:33.359Z,98284.78
2022-11-18T14:51:02.627Z,98281.91
2022-11-18T14:53:45.224Z,98280.84
2022-11-18T14:56:21.084Z,98284.50
2022-11-18T14:58:53.002Z,98303.81
2022-11-18T15:01:31.007Z,98286.59
2022-11-18T15:04:18.338Z,98297.53
2022-11-18T15:06:47.873Z,98300.41
2022-11-18T15:09:17.110Z,98305.34
2022-11-18T15:11:46.732Z,98297.31
2022-11-18T15:14:19.571Z,98300.41
2022-11-18T15:17:08.218Z,98305.13
2022-11-18T15:19:57.613Z,98312.16
2022-11-18T15:22:48.503Z,98319.22
2022-11-18T15:26:41.132Z,98313.72
2022-11-18T15:29:39.961Z,98324.41
2022-11-18T15:32:30.659Z,98327.81
2022-11-18T15:35:21.558Z,98329.38
2022-11-18T15:38:04.404Z,98328.31
2022-11-18T15:40:58.060Z,98328.84
2022-11-18T15:43:31.744Z,98328.31
2022-11-18T15:46:22.208Z,98327.56
2022-11-18T15:48:57.544Z,98336.16
2022-11-18T15:51:31.344Z,98333.03
2022-11-18T15:54:06.810Z,98334.34
2022-11-18T15:56:37.958Z,98333.31
2022-11-18T15:59:12.083Z,98338.50
2022-11-18T16:01:55.994Z,98333.00
2022-11-18T16:04:42.436Z,98341.88
2022-11-18T16:07:19.847Z,98343.44
2022-11-18T16:10:40.359Z,98345.78
2022-11-18T16:13:21.118Z,98353.88
2022-11-18T16:16:25.116Z,98350.22
2022-11-18T16:18:56.393Z,98356.47
2022-11-18T16:21:36.247Z,98361.13
2022-11-18T16:24:48.238Z,98357.50
2022-11-18T16:27:21.660Z,98354.63
2022-11-18T16:29:50.961Z,98368.41
2022-11-18T16:32:50.988Z,98355.41
2022-11-18T16:35:47.107Z,98364.25
2022-11-18T16:38:23.920Z,98368.94
2022-11-18T16:41:32.271Z,98375.72
2022-11-18T16:44:27.316Z,98366.59
2022-11-18T16:46:58.690Z,98374.16
2022-11-18T16:49:29.111Z,98372.63
2022-11-18T16:52:14.852Z,98379.88
2022-11-18T16:54:46.018Z,98378.88
2022-11-18T16:57:25.068Z,98390.84
2022-11-18T17:00:08.909Z,98385.66
2022-11-18T17:02:38.508Z,98381.72
2022-11-18T17:08:59.675Z,98397.09
2022-11-18T17:14:53.145Z,98403.09
2022-11-18T17:17:40.331Z,98403.09
2022-11-18T17:20:22.155Z,98397.09
2022-11-18T17:23:01.597Z,98407.53
2022-11-18T17:28:43.262Z,98395.28
2022-11-18T17:31:41.703Z,98403.63
2022-11-18T17:34:13.524Z,98407.75
2022-11-18T17:37:34.329Z,98404.66
2022-11-18T17:40:03.641Z,98410.63
2022-11-18T17:42:56.184Z,98418.44
2022-11-18T17:45:25.313Z,98418.97
2022-11-18T17:48:08.569Z,98424.19
2022-11-18T17:50:37.727Z,98423.38
2022-11-18T17:53:26.570Z,98422.38
2022-11-18T17:56:00.836Z,98416.88
2022-11-18T17:58:32.981Z,98428.34
2022-11-18T18:01:09.383Z,98424.97
2022-11-18T18:04:00.390Z,98424.72
2022-11-18T18:06:55.733Z,98441.88
2022-11-18T18:09:30.473Z,98439.28
2022-11-18T18:12:25.584Z,98442.94
2022-11-18T18:15:13.544Z,98449.16
2022-11-18T18:17:53.563Z,98448.66
2022-11-18T18:20:24.635Z,98446.31
2022-11-18T18:22:55.201Z,98439.78
2022-11-18T18:25:24.782Z,98445.25
2022-11-18T18:28:31.227Z,98452.03
2022-11-18T18:31:04.474Z,98450.75
2022-11-18T18:33:44.333Z,98445.78
2022-11-18T18:39:14.221Z,98451.78
2022-11-18T18:41:43.528Z,98452.03
2022-11-18T18:44:18.339Z,98446.56
2022-11-18T18:46:57.329Z,98460.63
2022-11-18T18:49:34.012Z,98463.22
2022-11-18T18:52:25.331Z,98463.50
2022-11-18T18:55:18.948Z,98456.97
2022-11-18T18:57:48.118Z,98457.75
2022-11-18T19:00:20.927Z,98455.44
2022-11-18T19:02:55.783Z,98449.16
2022-11-18T19:06:12.245Z,98452.53
2022-11-18T19:08:24.719Z,98463.25
2022-11-18T19:10:54.064Z,98460.63
2022-11-18T19:13:22.363Z,98467.66
2022-11-18T19:15:51.565Z,98462.44
2022-11-18T19:18:36.184Z,98459.81
2022-11-18T19:21:34.653Z,98471.81
2022-11-18T19:24:22.835Z,98481.44
2022-11-18T19:26:56.056Z,98477.03
2022-11-18T19:29:28.809Z,98478.56
2022-11-18T19:31:58.050Z,98487.69
2022-11-18T19:34:28.536Z,98478.31
2022-11-18T19:37:02.648Z,98481.97
2022-11-18T19:39:39.628Z,98473.09
2022-11-18T19:45:10.574Z,98485.34
2022-11-18T19:47:48.056Z,98488.19
2022-11-18T19:50:20.811Z,98484.28
2022-11-18T19:52:49.970Z,98487.44
2022-11-18T19:55:28.089Z,98488.50
2022-11-18T19:58:22.349Z,98489.28
2022-11-18T20:00:58.061Z,98493.94
2022-11-18T20:03:30.044Z,98491.09
2022-11-18T20:06:02.613Z,98494.22
2022-11-18T20:08:45.083Z,98487.97
2022-11-18T20:11:50.241Z,98489.81
2022-11-18T20:14:29.603Z,98492.94
2022-11-18T20:16:58.705Z,98486.97
2022-11-18T20:19:35.649Z,98492.44
2022-11-18T20:22:22.361Z,98500.50
2022-11-18T20:25:01.252Z,98499.16
2022-11-18T20:27:34.809Z,98503.34
2022-11-18T20:30:34.272Z,98500.22
2022-11-18T20:33:09.963Z,98504.38
2022-11-18T20:35:45.751Z,98510.13
2022-11-18T20:38:23.807Z,98501.50
2022-11-18T20:40:52.953Z,98503.59
2022-11-18T20:44:23.691Z,98500.50
2022-11-18T20:46:28.955Z,98501.78
2022-11-18T20:49:05.808Z,98511.69
2022-11-18T20:52:01.624Z,98514.78
2022-11-18T20:54:37.703Z,98522.59
2022-11-18T20:57:06.931Z,98524.66
2022-11-18T20:59:37.483Z,98519.44
2022-11-18T21:02:17.088Z,98522.81
2022-11-18T21:05:09.145Z,98529.28
2022-11-18T21:08:02.041Z,98532.38
2022-11-18T21:10:52.567Z,98527.66
2022-11-18T21:13:59.948Z,98539.88
2022-11-18T21:16:50.535Z,98526.06
2022-11-18T21:19:38.631Z,98533.88
2022-11-18T21:22:25.238Z,98518.25
2022-11-18T21:25:14.932Z,98528.69
2022-11-18T21:28:05.019Z,98537.53
2022-11-18T21:30:52.444Z,98530.75
2022-11-18T21:33:41.865Z,98539.59
2022-11-18T21:36:30.379Z,98530.22
2022-11-18T21:39:18.362Z,98534.69
2022-11-18T21:42:06.150Z,98532.88
2022-11-18T21:44:54.127Z,98528.97
2022-11-18T21:47:42.467Z,98526.66
2022-11-18T21:50:31.713Z,98528.50
2022-11-18T21:53:20.150Z,98539.44
2022-11-18T21:56:11.557Z,98545.44
2022-11-18T21:59:01.351Z,98543.63
2022-11-18T22:01:48.975Z,98543.38
2022-11-18T22:04:55.971Z,98549.34
2022-11-18T22:07:45.097Z,98539.19
2022-11-18T22:10:36.855Z,98541.78
2022-11-18T22:13:25.497Z,98545.44
2022-11-18T22:16:19.768Z,98538.44
2022-11-18T22:19:08.419Z,98535.03
2022-11-18T22:21:56.466Z,98536.59
2022-11-18T22:24:45.465Z,98547.25
2022-11-18T22:27:34.809Z,98540.47
2022-11-18T22:30:25.460Z,98538.69
2022-11-18T22:33:13.026Z,98533.22
2022-11-18T22:36:05.249Z,98538.44
2022-11-18T22:38:53.003Z,98542.34
2022-11-18T22:41:59.564Z,98545.97
2022-11-18T22:44:47.138Z,98539.19
2022-11-18T22:47:34.953Z,98538.69
2022-11-18T22:50:22.758Z,98544.41
2022-11-18T22:53:10.405Z,98536.84
2022-11-18T22:56:06.865Z,98528.50
2022-11-18T22:58:55.552Z,98547.53
2022-11-18T23:01:43.316Z,98545.69
2022-11-18T23:04:31.067Z,98545.44
2022-11-18T23:07:18.689Z,98546.50
2022-11-18T23:10:07.156Z,98556.16
2022-11-18T23:13:12.837Z,98558.50
2022-11-18T23:16:01.803Z,98570.78
2022-11-18T23:18:49.709Z,98557.47
2022-11-18T23:21:37.609Z,98564.22
2022-11-18T23:24:25.491Z,98551.50
2022-11-18T23:27:13.051Z,98559.00
2022-11-18T23:30:00.938Z,98554.59
2022-11-18T23:32:49.772Z,98565.28
2022-11-18T23:35:37.528Z,98568.88
2022-11-18T23:38:25.488Z,98560.81
2022-11-18T23:41:15.451Z,98563.72
2022-11-18T23:44:03.501Z,98560.06
2022-11-18T23:46:51.115Z,98553.56
2022-11-18T23:49:40.191Z,98569.97
2022-11-18T23:52:27.899Z,98570.72
2022-11-18T23:55:17.166Z,98576.19
2022-11-18T23:58:07.029Z,98572.28
